createdAt,value
2019-01-09T00:01:02.233Z,74.70
2019-01-09T00:03:30.683Z,75.00
2019-01-09T00:05:59.108Z,75.70
2019-01-09T00:08:30.353Z,75.80
2019-01-09T00:10:58.927Z,76.50
2019-01-09T00:13:27.567Z,76.70
2019-01-09T00:15:56.058Z,76.80
2019-01-09T00:18:24.521Z,76.90
2019-01-09T00:20:52.963Z,77.00
2019-01-09T00:23:21.716Z,77.10
2019-01-09T00:25:50.480Z,77.30
2019-01-09T00:28:18.979Z,77.60
2019-01-09T00:30:47.476Z,77.40
2019-01-09T00:33:15.964Z,77.40
2019-01-09T00:35:44.458Z,77.60
2019-01-09T00:38:12.960Z,77.10
2019-01-09T00:40:41.594Z,77.10
2019-01-09T00:43:10.075Z,77.10
2019-01-09T00:45:38.468Z,76.00
2019-01-09T00:48:07.218Z,76.00
2019-01-09T00:50:35.976Z,76.00
2019-01-09T00:53:04.383Z,76.10
2019-01-09T00:55:33.314Z,76.10
2019-01-09T00:58:01.822Z,76.20
2019-01-09T01:00:30.454Z,76.10
2019-01-09T01:03:24.225Z,76.20
2019-01-09T01:06:12.089Z,76.30
2019-01-09T01:08:52.776Z,76.20
2019-01-09T01:11:56.935Z,76.60
2019-01-09T01:14:46.094Z,77.00
2019-01-09T01:17:23.157Z,77.30
2019-01-09T01:20:13.692Z,77.20
2019-01-09T01:23:02.972Z,77.30
2019-01-09T01:25:34.965Z,77.60
2019-01-09T01:28:41.084Z,77.70
2019-01-09T01:31:27.268Z,77.80
2019-01-09T01:34:01.524Z,77.70
2019-01-09T01:36:35.988Z,76.90
2019-01-09T01:39:34.508Z,77.20
2019-01-09T01:42:14.968Z,77.30
2019-01-09T01:45:01.324Z,76.60
2019-01-09T01:47:44.839Z,76.60
2019-01-09T01:50:21.672Z,76.30
2019-01-09T01:52:53.350Z,76.70
2019-01-09T01:55:27.898Z,77.00
2019-01-09T01:58:08.307Z,77.20
2019-01-09T02:00:42.461Z,77.20
2019-01-09T02:03:30.778Z,77.20
2019-01-09T02:06:03.865Z,76.50
2019-01-09T02:08:44.644Z,76.00
2019-01-09T02:11:28.073Z,75.90
2019-01-09T02:13:59.834Z,76.00
2019-01-09T02:16:50.801Z,75.80
2019-01-09T02:19:28.205Z,75.60
2019-01-09T02:22:17.744Z,75.50
2019-01-09T02:24:49.503Z,75.60
2019-01-09T02:27:21.459Z,75.60
2019-01-09T02:29:52.976Z,75.90
2019-01-09T02:32:29.353Z,75.70
2019-01-09T02:34:58.384Z,75.50
2019-01-09T02:37:27.127Z,75.80
2019-01-09T02:39:55.544Z,75.90
2019-01-09T02:42:24.071Z,75.80
2019-01-09T02:44:52.714Z,75.70
2019-01-09T02:47:21.507Z,75.40
2019-01-09T02:49:50.313Z,75.30
2019-01-09T02:52:18.974Z,74.70
2019-01-09T02:54:47.636Z,74.20
2019-01-09T02:57:16.574Z,74.00
2019-01-09T02:59:44.993Z,73.90
2019-01-09T03:02:13.941Z,74.40
2019-01-09T03:04:42.439Z,74.40
2019-01-09T03:07:11.084Z,74.40
2019-01-09T03:09:39.484Z,74.60
2019-01-09T03:12:08.171Z,75.00
2019-01-09T03:14:36.585Z,75.20
2019-01-09T03:17:05.111Z,75.30
2019-01-09T03:19:33.770Z,75.40
2019-01-09T03:22:02.177Z,75.50
2019-01-09T03:24:30.615Z,75.90
2019-01-09T03:26:59.072Z,76.10
2019-01-09T03:29:27.858Z,75.80
2019-01-09T03:31:56.535Z,75.40
2019-01-09T03:34:24.987Z,75.70
2019-01-09T03:36:53.688Z,75.20
2019-01-09T03:39:22.101Z,75.60
2019-01-09T03:41:50.747Z,75.20
2019-01-09T03:44:19.544Z,75.10
2019-01-09T03:46:48.160Z,75.40
2019-01-09T03:49:16.685Z,75.10
2019-01-09T03:51:45.402Z,75.70
2019-01-09T03:54:14.062Z,75.90
2019-01-09T03:56:42.492Z,76.20
2019-01-09T03:59:11.167Z,76.20
2019-01-09T04:01:39.598Z,76.50
2019-01-09T04:04:08.739Z,76.00
2019-01-09T04:06:42.040Z,76.20
2019-01-09T04:09:07.547Z,76.10
2019-01-09T04:11:36.298Z,76.20
2019-01-09T04:14:05.065Z,76.90
2019-01-09T04:16:33.469Z,77.40
2019-01-09T04:19:02.226Z,77.80
2019-01-09T04:21:30.632Z,78.10
2019-01-09T04:23:59.058Z,78.50
2019-01-09T04:26:27.776Z,78.70
2019-01-09T04:28:56.184Z,78.90
2019-01-09T04:31:24.845Z,78.60
2019-01-09T04:33:53.301Z,78.80
2019-01-09T04:36:21.738Z,78.70
2019-01-09T04:38:50.153Z,79.60
2019-01-09T04:41:18.857Z,79.50
2019-01-09T04:43:47.268Z,78.80
2019-01-09T04:46:16.014Z,78.50
2019-01-09T04:48:44.550Z,78.60
2019-01-09T04:51:13.100Z,77.90
2019-01-09T04:53:41.783Z,78.10
2019-01-09T04:56:10.513Z,76.90
2019-01-09T04:58:38.937Z,75.90
2019-01-09T05:01:07.589Z,76.20
2019-01-09T05:03:36.308Z,75.80
2019-01-09T05:06:04.721Z,75.50
2019-01-09T05:08:33.370Z,74.70
2019-01-09T05:11:01.864Z,75.10
2019-01-09T05:13:30.581Z,75.00
2019-01-09T05:15:59.022Z,74.90
2019-01-09T05:18:27.735Z,75.30
2019-01-09T05:20:56.416Z,75.10
2019-01-09T05:23:25.081Z,75.00
2019-01-09T05:25:53.531Z,74.30
2019-01-09T05:28:21.948Z,74.30
2019-01-09T05:30:50.363Z,74.60
2019-01-09T05:33:18.841Z,74.80
2019-01-09T05:35:47.670Z,74.30
2019-01-09T05:38:16.380Z,74.40
2019-01-09T05:40:44.823Z,74.30
2019-01-09T05:43:13.517Z,73.80
2019-01-09T05:45:41.913Z,73.70
2019-01-09T05:48:10.357Z,73.80
2019-01-09T05:50:38.938Z,73.80
2019-01-09T05:53:07.346Z,74.30
2019-01-09T05:55:36.095Z,74.00
2019-01-09T05:58:04.514Z,73.90
2019-01-09T06:00:32.927Z,73.60
2019-01-09T06:03:01.386Z,73.50
2019-01-09T06:05:30.048Z,73.80
2019-01-09T06:07:58.461Z,74.90
2019-01-09T06:10:27.170Z,74.90
2019-01-09T06:12:55.798Z,75.00
2019-01-09T06:15:24.656Z,75.50
2019-01-09T06:17:53.233Z,75.20
2019-01-09T06:20:21.630Z,74.70
2019-01-09T06:22:50.521Z,73.50
2019-01-09T06:25:19.628Z,73.10
2019-01-09T06:27:48.119Z,72.50
2019-01-09T06:30:16.966Z,72.80
2019-01-09T06:32:45.864Z,72.70
2019-01-09T06:35:15.899Z,72.80
2019-01-09T06:37:44.763Z,73.30
2019-01-09T06:40:13.561Z,72.10
2019-01-09T06:42:42.406Z,72.10
2019-01-09T06:45:11.071Z,71.20
2019-01-09T06:47:39.841Z,71.20
2019-01-09T06:50:11.467Z,70.60
2019-01-09T06:52:40.258Z,70.80
2019-01-09T06:55:10.235Z,70.60
2019-01-09T06:57:38.936Z,70.90
2019-01-09T07:00:10.145Z,71.20
2019-01-09T07:02:38.892Z,70.80
2019-01-09T07:05:07.385Z,70.90
2019-01-09T07:07:36.332Z,70.70
2019-01-09T07:10:07.425Z,70.30
2019-01-09T07:12:35.861Z,70.40
2019-01-09T07:15:11.495Z,70.50
2019-01-09T07:17:35.759Z,70.60
2019-01-09T07:20:04.501Z,70.70
2019-01-09T07:22:32.939Z,70.60
2019-01-09T07:25:01.634Z,70.30
2019-01-09T07:27:30.050Z,70.60
2019-01-09T07:29:58.512Z,70.70
2019-01-09T07:32:27.209Z,70.30
2019-01-09T07:34:55.656Z,70.10
2019-01-09T07:37:24.364Z,70.10
2019-01-09T07:39:52.829Z,70.60
2019-01-09T07:42:21.283Z,70.30
2019-01-09T07:44:49.973Z,70.70
2019-01-09T07:47:19.126Z,70.30
2019-01-09T07:49:47.555Z,70.50
2019-01-09T07:52:16.201Z,70.00
2019-01-09T07:54:44.873Z,69.70
2019-01-09T07:57:13.355Z,69.60
2019-01-09T07:59:42.159Z,69.60
2019-01-09T08:02:10.880Z,69.90
2019-01-09T08:04:39.670Z,70.00
2019-01-09T08:07:08.464Z,70.30
2019-01-09T08:09:36.976Z,69.80
2019-01-09T08:12:05.383Z,70.40
2019-01-09T08:14:33.796Z,70.10
2019-01-09T08:17:02.690Z,70.50
2019-01-09T08:19:31.095Z,69.80
2019-01-09T08:21:59.627Z,69.50
2019-01-09T08:24:28.332Z,70.10
2019-01-09T08:26:56.741Z,70.10
2019-01-09T08:29:25.135Z,69.90
2019-01-09T08:31:53.586Z,70.10
2019-01-09T08:34:22.289Z,70.90
2019-01-09T08:36:50.967Z,70.80
2019-01-09T08:39:20.257Z,71.00
2019-01-09T08:41:49.093Z,71.10
2019-01-09T08:44:17.515Z,70.80
2019-01-09T08:46:46.587Z,70.90
2019-01-09T08:49:15.017Z,71.10
2019-01-09T08:51:43.436Z,71.00
2019-01-09T08:54:11.903Z,70.50
2019-01-09T08:56:40.551Z,70.70
2019-01-09T08:59:09.255Z,70.40
2019-01-09T09:01:37.758Z,70.60
2019-01-09T09:04:06.518Z,70.00
2019-01-09T09:06:35.158Z,68.80
2019-01-09T09:09:04.532Z,68.20
2019-01-09T09:11:33.978Z,68.30
2019-01-09T09:14:02.630Z,67.70
2019-01-09T09:16:36.622Z,68.10
2019-01-09T09:19:01.598Z,67.40
2019-01-09T09:21:29.988Z,67.50
2019-01-09T09:23:58.502Z,67.70
2019-01-09T09:26:26.939Z,68.00
2019-01-09T09:28:55.352Z,68.10
2019-01-09T09:31:23.802Z,68.20
2019-01-09T09:33:52.243Z,67.70
2019-01-09T09:36:20.688Z,67.90
2019-01-09T09:38:49.113Z,68.00
2019-01-09T09:41:17.835Z,67.80
2019-01-09T09:43:46.481Z,67.80
2019-01-09T09:46:15.203Z,67.80
2019-01-09T09:48:43.893Z,67.30
2019-01-09T09:51:12.600Z,67.30
2019-01-09T09:53:41.319Z,66.60
2019-01-09T09:56:09.735Z,67.00
2019-01-09T09:58:38.413Z,66.60
2019-01-09T10:01:06.854Z,66.70
2019-01-09T10:03:35.273Z,67.20
2019-01-09T10:06:03.730Z,66.70
2019-01-09T10:08:32.598Z,67.10
2019-01-09T10:11:02.150Z,67.10
2019-01-09T10:13:30.865Z,66.90
2019-01-09T10:15:59.309Z,66.70
2019-01-09T10:18:27.988Z,66.50
2019-01-09T10:20:56.456Z,67.50
2019-01-09T10:23:24.926Z,67.30
2019-01-09T10:25:53.681Z,67.50
2019-01-09T10:28:22.617Z,67.70
2019-01-09T10:30:51.107Z,67.20
2019-01-09T10:33:19.522Z,66.80
2019-01-09T10:35:47.969Z,67.10
2019-01-09T10:38:16.426Z,67.10
2019-01-09T10:40:44.819Z,66.50
2019-01-09T10:43:13.329Z,66.20
2019-01-09T10:45:41.969Z,66.90
2019-01-09T10:48:10.444Z,67.10
2019-01-09T10:50:39.180Z,68.00
2019-01-09T10:53:07.606Z,68.40
2019-01-09T10:55:36.406Z,69.20
2019-01-09T10:58:04.898Z,70.80
2019-01-09T11:00:33.593Z,71.30
2019-01-09T11:03:02.069Z,72.20
2019-01-09T11:05:30.510Z,72.30
2019-01-09T11:07:58.907Z,72.50
2019-01-09T11:10:28.053Z,72.80
2019-01-09T11:12:56.793Z,73.40
2019-01-09T11:15:25.470Z,73.00
2019-01-09T11:17:54.284Z,72.90
2019-01-09T11:20:22.767Z,72.80
2019-01-09T11:22:51.254Z,72.80
2019-01-09T11:25:22.372Z,71.40
2019-01-09T11:27:51.178Z,70.70
2019-01-09T11:30:19.748Z,70.30
2019-01-09T11:32:48.243Z,69.40
2019-01-09T11:35:19.945Z,69.80
2019-01-09T11:37:48.369Z,70.00
2019-01-09T11:40:18.782Z,70.50
2019-01-09T11:42:47.453Z,70.10
2019-01-09T11:45:18.473Z,69.50
2019-01-09T11:47:47.563Z,68.70
2019-01-09T11:50:16.733Z,68.20
2019-01-09T11:52:45.308Z,68.40
2019-01-09T11:55:15.077Z,68.00
2019-01-09T11:57:43.983Z,67.90
2019-01-09T12:00:21.148Z,67.50
2019-01-09T12:02:49.945Z,67.50
2019-01-09T12:05:18.759Z,67.40
2019-01-09T12:07:47.292Z,66.50
2019-01-09T12:10:29.494Z,66.60
2019-01-09T12:12:51.519Z,65.20
2019-01-09T12:15:20.421Z,64.10
2019-01-09T12:17:49.137Z,64.20
2019-01-09T12:20:19.446Z,64.00
2019-01-09T12:22:48.582Z,62.80
2019-01-09T12:25:17.075Z,62.30
2019-01-09T12:27:45.902Z,63.20
2019-01-09T12:30:23.979Z,63.40
2019-01-09T12:32:53.165Z,63.10
2019-01-09T12:35:21.669Z,62.60
2019-01-09T12:37:50.673Z,62.10
2019-01-09T12:40:19.408Z,61.60
2019-01-09T12:42:48.091Z,61.40
2019-01-09T12:45:17.534Z,61.00
2019-01-09T12:47:46.202Z,61.70
2019-01-09T12:50:17.799Z,61.50
2019-01-09T12:52:46.523Z,60.60
2019-01-09T12:55:15.037Z,61.20
2019-01-09T12:57:43.523Z,61.60
2019-01-09T13:00:17.962Z,60.70
2019-01-09T13:02:46.416Z,59.50
2019-01-09T13:05:15.751Z,59.80
2019-01-09T13:07:45.450Z,60.40
2019-01-09T13:10:14.467Z,59.80
2019-01-09T13:12:43.234Z,60.30
2019-01-09T13:15:12.220Z,60.60
2019-01-09T13:17:40.948Z,60.20
2019-01-09T13:20:15.647Z,61.10
2019-01-09T13:22:44.186Z,61.30
2019-01-09T13:25:14.589Z,61.50
2019-01-09T13:27:43.518Z,60.60
2019-01-09T13:30:15.046Z,61.20
2019-01-09T13:32:43.466Z,61.20
2019-01-09T13:35:11.934Z,60.90
2019-01-09T13:37:40.629Z,62.40
2019-01-09T13:40:12.483Z,61.10
2019-01-09T13:42:40.894Z,61.30
2019-01-09T13:45:12.185Z,61.90
2019-01-09T13:47:40.663Z,62.80
2019-01-09T13:50:11.822Z,62.10
2019-01-09T13:52:40.609Z,62.10
2019-01-09T13:55:11.769Z,62.20
2019-01-09T13:57:40.501Z,62.20
2019-01-09T14:00:12.886Z,62.70
2019-01-09T14:02:41.332Z,62.80
2019-01-09T14:05:10.237Z,62.50
2019-01-09T14:07:39.015Z,62.50
2019-01-09T14:10:11.134Z,62.20
2019-01-09T14:12:39.567Z,62.00
2019-01-09T14:15:11.137Z,61.80
2019-01-09T14:17:39.828Z,61.10
2019-01-09T14:20:11.281Z,60.70
2019-01-09T14:22:40.276Z,60.30
2019-01-09T14:25:10.841Z,60.50
2019-01-09T14:27:39.617Z,60.60
2019-01-09T14:30:19.851Z,60.70
2019-01-09T14:32:48.589Z,60.00
2019-01-09T14:35:17.228Z,60.10
2019-01-09T14:37:45.696Z,60.70
2019-01-09T14:40:20.893Z,59.40
2019-01-09T14:42:49.340Z,59.50
2019-01-09T14:45:18.355Z,58.40
2019-01-09T14:47:47.373Z,59.90
2019-01-09T14:50:18.603Z,59.70
2019-01-09T14:52:47.581Z,58.80
2019-01-09T14:55:16.701Z,59.80
2019-01-09T14:57:45.550Z,58.90
2019-01-09T15:00:17.372Z,59.40
2019-01-09T15:02:46.268Z,59.50
2019-01-09T15:05:15.009Z,60.60
2019-01-09T15:07:43.818Z,59.50
2019-01-09T15:10:18.202Z,59.70
2019-01-09T15:12:47.272Z,59.00
2019-01-09T15:15:17.210Z,59.80
2019-01-09T15:17:45.937Z,60.00
2019-01-09T15:20:19.419Z,60.50
2019-01-09T15:22:48.562Z,60.30
2019-01-09T15:25:17.535Z,60.20
2019-01-09T15:27:45.996Z,61.30
2019-01-09T15:30:17.611Z,60.70
2019-01-09T15:32:46.082Z,60.60
2019-01-09T15:35:14.665Z,60.90
2019-01-09T15:37:43.334Z,61.70
2019-01-09T15:40:28.567Z,61.60
2019-01-09T15:42:57.041Z,61.20
2019-01-09T15:45:25.831Z,61.70
2019-01-09T15:47:54.663Z,61.80
2019-01-09T15:50:25.028Z,61.80
2019-01-09T15:52:53.483Z,62.20
2019-01-09T15:55:22.128Z,62.50
2019-01-09T15:57:52.838Z,62.80
2019-01-09T16:00:35.686Z,63.20
2019-01-09T16:03:05.211Z,62.90
2019-01-09T16:05:34.131Z,63.20
2019-01-09T16:08:02.644Z,63.50
2019-01-09T16:10:31.130Z,63.50
2019-01-09T16:12:59.563Z,64.10
2019-01-09T16:15:28.009Z,64.00
2019-01-09T16:17:56.456Z,64.30
2019-01-09T16:20:25.201Z,64.10
2019-01-09T16:22:53.695Z,64.60
2019-01-09T16:25:22.182Z,64.70
2019-01-09T16:27:50.565Z,64.40
2019-01-09T16:30:33.799Z,64.30
2019-01-09T16:32:55.715Z,64.70
2019-01-09T16:35:24.106Z,65.70
2019-01-09T16:37:52.794Z,65.90
2019-01-09T16:40:23.535Z,66.90
2019-01-09T16:42:51.611Z,67.20
2019-01-09T16:45:20.025Z,67.30
2019-01-09T16:47:48.659Z,67.70
2019-01-09T16:50:20.597Z,68.20
2019-01-09T16:52:49.259Z,68.00
2019-01-09T16:55:18.041Z,67.90
2019-01-09T16:57:46.873Z,68.20
2019-01-09T17:00:24.258Z,67.90
2019-01-09T17:02:53.304Z,67.70
2019-01-09T17:05:22.022Z,67.30
2019-01-09T17:07:51.135Z,67.50
2019-01-09T17:10:19.669Z,66.80
2019-01-09T17:12:48.057Z,66.90
2019-01-09T17:15:20.265Z,67.10
2019-01-09T17:17:49.017Z,66.20
2019-01-09T17:20:30.162Z,65.70
2019-01-09T17:22:58.997Z,65.90
2019-01-09T17:25:27.466Z,65.30
2019-01-09T17:27:56.146Z,65.00
2019-01-09T17:30:29.260Z,65.60
2019-01-09T17:32:57.912Z,65.40
2019-01-09T17:35:26.726Z,65.50
2019-01-09T17:37:55.264Z,64.90
2019-01-09T17:40:24.925Z,65.00
2019-01-09T17:42:54.340Z,65.40
2019-01-09T17:45:22.805Z,65.60
2019-01-09T17:47:51.435Z,65.90
2019-01-09T17:50:22.733Z,66.10
2019-01-09T17:52:51.128Z,66.50
2019-01-09T17:55:19.522Z,66.50
2019-01-09T17:57:48.200Z,66.80
2019-01-09T18:00:26.255Z,67.20
2019-01-09T18:02:54.977Z,67.40
2019-01-09T18:05:23.951Z,67.80
2019-01-09T18:07:52.465Z,67.50
2019-01-09T18:10:22.680Z,67.90
2019-01-09T18:12:51.270Z,67.90
2019-01-09T18:15:22.499Z,67.90
2019-01-09T18:17:51.518Z,68.00
2019-01-09T18:20:21.857Z,68.10
2019-01-09T18:22:50.313Z,67.80
2019-01-09T18:25:21.813Z,67.90
2019-01-09T18:27:50.256Z,68.20
2019-01-09T18:30:21.968Z,68.10
2019-01-09T18:32:56.010Z,67.80
2019-01-09T18:35:45.361Z,67.50
2019-01-09T18:38:19.638Z,67.60
2019-01-09T18:40:59.007Z,67.60
2019-01-09T18:43:36.127Z,68.00
2019-01-09T18:46:19.345Z,68.30
2019-01-09T18:49:05.566Z,68.50
2019-01-09T18:51:56.613Z,68.20
2019-01-09T18:54:25.114Z,66.90
2019-01-09T18:56:54.564Z,68.00
2019-01-09T18:59:22.954Z,67.60
2019-01-09T19:01:52.255Z,66.80
2019-01-09T19:04:20.881Z,67.40
2019-01-09T19:06:49.387Z,66.50
2019-01-09T19:09:18.531Z,66.10
2019-01-09T19:11:50.660Z,66.00
2019-01-09T19:14:17.590Z,65.60
2019-01-09T19:16:46.417Z,65.40
2019-01-09T19:19:14.813Z,65.10
2019-01-09T19:21:43.734Z,65.00
2019-01-09T19:24:12.177Z,65.00
2019-01-09T19:26:40.641Z,64.70
2019-01-09T19:29:09.128Z,64.20
2019-01-09T19:31:37.713Z,64.20
2019-01-09T19:34:06.650Z,64.60
2019-01-09T19:36:35.048Z,64.50
2019-01-09T19:39:06.708Z,64.00
2019-01-09T19:41:35.102Z,64.60
2019-01-09T19:44:03.590Z,64.40
2019-01-09T19:46:32.103Z,64.40
2019-01-09T19:49:00.793Z,64.10
2019-01-09T19:51:29.466Z,64.00
2019-01-09T19:53:57.945Z,64.10
2019-01-09T19:56:26.405Z,64.60
2019-01-09T19:58:54.806Z,64.60
2019-01-09T20:01:23.481Z,64.90
2019-01-09T20:03:52.513Z,65.00
2019-01-09T20:06:21.321Z,65.00
2019-01-09T20:08:50.536Z,65.00
2019-01-09T20:11:26.274Z,65.30
2019-01-09T20:13:49.921Z,65.40
2019-01-09T20:16:18.510Z,65.50
2019-01-09T20:18:47.230Z,65.30
2019-01-09T20:21:15.693Z,65.50
2019-01-09T20:23:44.218Z,65.90
2019-01-09T20:26:12.734Z,66.30
2019-01-09T20:28:41.117Z,66.60
2019-01-09T20:31:09.709Z,66.60
2019-01-09T20:33:38.253Z,66.80
2019-01-09T20:36:06.969Z,67.30
2019-01-09T20:38:35.467Z,67.60
2019-01-09T20:41:04.002Z,68.00
2019-01-09T20:43:32.628Z,68.40
2019-01-09T20:46:01.087Z,68.50
2019-01-09T20:48:29.785Z,68.80
2019-01-09T20:50:58.251Z,69.60
2019-01-09T20:53:26.878Z,69.60
2019-01-09T20:55:55.613Z,69.70
2019-01-09T20:58:23.992Z,69.60
2019-01-09T21:00:52.728Z,69.60
2019-01-09T21:03:21.225Z,69.40
2019-01-09T21:05:49.981Z,69.50
2019-01-09T21:08:18.665Z,69.40
2019-01-09T21:10:47.197Z,69.40
2019-01-09T21:13:15.652Z,69.10
2019-01-09T21:15:44.091Z,68.60
2019-01-09T21:18:12.553Z,68.50
2019-01-09T21:20:41.192Z,68.60
2019-01-09T21:23:09.862Z,68.40
2019-01-09T21:25:38.470Z,68.10
2019-01-09T21:28:07.004Z,68.20
2019-01-09T21:30:35.421Z,68.00
2019-01-09T21:33:04.204Z,67.90
2019-01-09T21:35:32.599Z,67.50
2019-01-09T21:38:01.060Z,67.00
2019-01-09T21:40:30.187Z,66.70
2019-01-09T21:42:58.646Z,66.50
2019-01-09T21:45:27.072Z,66.40
2019-01-09T21:47:55.669Z,66.40
2019-01-09T21:50:25.797Z,66.00
2019-01-09T21:52:54.435Z,66.60
2019-01-09T21:55:22.970Z,66.50
2019-01-09T21:57:51.608Z,66.60
2019-01-09T22:00:23.138Z,66.40
2019-01-09T22:02:51.587Z,66.30
2019-01-09T22:05:20.958Z,66.40
2019-01-09T22:07:49.881Z,66.30
2019-01-09T22:10:27.283Z,66.00
2019-01-09T22:12:55.678Z,66.50
2019-01-09T22:15:24.214Z,66.70
2019-01-09T22:17:52.785Z,66.30
2019-01-09T22:20:21.597Z,66.30
2019-01-09T22:22:50.067Z,66.80
2019-01-09T22:25:18.781Z,66.60
2019-01-09T22:27:47.934Z,66.70
2019-01-09T22:30:22.127Z,66.30
2019-01-09T22:32:50.973Z,66.30
2019-01-09T22:35:19.735Z,66.00
2019-01-09T22:37:48.140Z,66.10
2019-01-09T22:40:20.720Z,66.00
2019-01-09T22:42:48.825Z,66.00
2019-01-09T22:45:17.673Z,65.80
2019-01-09T22:47:46.223Z,66.20
2019-01-09T22:50:21.783Z,66.30
2019-01-09T22:52:50.352Z,66.10
2019-01-09T22:55:18.884Z,65.90
2019-01-09T22:57:47.508Z,65.40
2019-01-09T23:00:28.854Z,65.40
2019-01-09T23:02:57.414Z,65.30
2019-01-09T23:05:26.197Z,65.10
2019-01-09T23:07:54.866Z,65.70
2019-01-09T23:10:24.016Z,65.50
2019-01-09T23:12:52.646Z,65.30
2019-01-09T23:15:21.732Z,65.20
2019-01-09T23:17:50.117Z,65.40
2019-01-09T23:20:18.808Z,64.90
2019-01-09T23:22:47.307Z,65.30
2019-01-09T23:25:15.938Z,65.20
2019-01-09T23:27:44.411Z,65.60
2019-01-09T23:30:13.617Z,65.50
2019-01-09T23:32:42.237Z,65.00
2019-01-09T23:35:12.462Z,64.60
2019-01-09T23:37:41.456Z,65.00
2019-01-09T23:40:15.614Z,64.80
2019-01-09T23:42:44.477Z,64.80
2019-01-09T23:45:14.989Z,64.90
2019-01-09T23:47:43.645Z,65.00
2019-01-09T23:50:12.561Z,65.30
2019-01-09T23:52:41.223Z,65.10
2019-01-09T23:55:11.587Z,65.20
2019-01-09T23:57:40.459Z,65.50
